createdAt,value
2023-05-15T00:00:44.606Z,100272.91
2023-05-15T00:03:12.618Z,100272.03
2023-05-15T00:05:39.833Z,100272.03
2023-05-15T00:08:06.408Z,100265.88
2023-05-15T00:10:33.008Z,100272.13
2023-05-15T00:12:59.596Z,100265.06
2023-05-15T00:15:26.373Z,100255.31
2023-05-15T00:17:53.033Z,100258.91
2023-05-15T00:20:19.617Z,100256.28
2023-05-15T00:22:46.449Z,100255.41
2023-05-15T00:25:12.989Z,100255.41
2023-05-15T00:27:39.694Z,100249.25
2023-05-15T00:30:08.898Z,100255.50
2023-05-15T00:32:35.732Z,100251.13
2023-05-15T00:35:02.604Z,100248.50
2023-05-15T00:37:34.961Z,100251.25
2023-05-15T00:40:04.748Z,100249.53
2023-05-15T00:42:34.775Z,100248.69
2023-05-15T00:45:02.611Z,100251.38
2023-05-15T00:47:33.775Z,100246.09
2023-05-15T00:50:00.430Z,100248.78
2023-05-15T00:52:27.630Z,100248.84
2023-05-15T00:54:54.261Z,100244.41
2023-05-15T00:57:21.374Z,100246.22
2023-05-15T00:59:49.665Z,100249.75
2023-05-15T01:02:18.633Z,100236.50
2023-05-15T01:04:46.465Z,100235.59
2023-05-15T01:07:14.344Z,100235.63
2023-05-15T01:09:44.624Z,100232.97
2023-05-15T01:12:14.626Z,100234.75
2023-05-15T01:14:41.169Z,100234.75
2023-05-15T01:17:07.906Z,100223.28
2023-05-15T01:19:36.065Z,100233.88
2023-05-15T01:22:11.898Z,100238.31
2023-05-15T01:24:59.452Z,100231.22
2023-05-15T01:27:44.483Z,100228.59
2023-05-15T01:30:26.979Z,100225.94
2023-05-15T01:33:37.987Z,100222.41
2023-05-15T01:36:15.636Z,100230.34
2023-05-15T01:38:53.154Z,100235.66
2023-05-15T01:41:27.372Z,100230.38
2023-05-15T01:44:18.446Z,100223.28
2023-05-15T01:46:49.591Z,100224.16
2023-05-15T01:49:18.880Z,100225.03
2023-05-15T01:51:56.972Z,100233.00
2023-05-15T01:54:24.393Z,100223.25
2023-05-15T01:56:52.275Z,100222.38
2023-05-15T01:59:21.788Z,100220.59
2023-05-15T02:01:50.318Z,100216.16
2023-05-15T02:04:19.763Z,100218.81
2023-05-15T02:06:47.428Z,100211.75
2023-05-15T02:09:14.966Z,100213.50
2023-05-15T02:11:42.188Z,100208.16
2023-05-15T02:14:10.858Z,100209.06
2023-05-15T02:16:37.506Z,100205.47
2023-05-15T02:19:04.189Z,100201.91
2023-05-15T02:21:30.766Z,100206.31
2023-05-15T02:23:57.280Z,100202.78
2023-05-15T02:26:35.711Z,100193.94
2023-05-15T02:29:18.422Z,100203.66
2023-05-15T02:32:03.544Z,100196.56
2023-05-15T02:34:42.447Z,100198.31
2023-05-15T02:37:14.528Z,100197.44
2023-05-15T02:39:43.882Z,100196.53
2023-05-15T02:42:14.923Z,100198.28
2023-05-15T02:44:42.518Z,100200.88
2023-05-15T02:47:09.901Z,100202.63
2023-05-15T02:49:36.734Z,100192.00
2023-05-15T02:52:03.390Z,100193.75
2023-05-15T02:54:29.854Z,100199.91
2023-05-15T02:56:56.575Z,100202.53
2023-05-15T02:59:23.127Z,100198.09
2023-05-15T03:01:49.689Z,100192.75
2023-05-15T03:04:16.452Z,100190.13
2023-05-15T03:06:43.016Z,100188.31
2023-05-15T03:09:09.470Z,100177.72
2023-05-15T03:11:35.983Z,100183.88
2023-05-15T03:14:02.603Z,100172.44
2023-05-15T03:16:29.242Z,100168.88
2023-05-15T03:18:56.021Z,100173.28
2023-05-15T03:21:22.608Z,100170.59
2023-05-15T03:23:49.100Z,100161.75
2023-05-15T03:26:16.619Z,100164.41
2023-05-15T03:28:43.085Z,100170.56
2023-05-15T03:31:09.692Z,100158.19
2023-05-15T03:33:38.359Z,100164.34
2023-05-15T03:36:05.608Z,100166.09
2023-05-15T03:38:32.326Z,100166.09
2023-05-15T03:41:00.586Z,100166.97
2023-05-15T03:43:27.138Z,100169.63
2023-05-15T03:45:53.637Z,100164.34
2023-05-15T03:48:20.221Z,100158.22
2023-05-15T03:50:47.022Z,100167.94
2023-05-15T03:53:13.556Z,100155.63
2023-05-15T03:55:40.118Z,100151.28
2023-05-15T03:58:06.605Z,100156.56
2023-05-15T04:00:33.580Z,100156.63
2023-05-15T04:03:00.260Z,100154.88
2023-05-15T04:05:27.013Z,100156.66
2023-05-15T04:07:53.794Z,100154.91
2023-05-15T04:10:20.387Z,100152.28
2023-05-15T04:12:48.229Z,100153.16
2023-05-15T04:15:21.947Z,100156.72
2023-05-15T04:17:51.313Z,100162.00
2023-05-15T04:20:22.340Z,100154.06
2023-05-15T04:22:49.200Z,100161.09
2023-05-15T04:25:20.209Z,100154.91
2023-05-15T04:27:46.796Z,100157.56
2023-05-15T04:30:13.480Z,100157.56
2023-05-15T04:32:40.809Z,100145.19
2023-05-15T04:35:12.474Z,100153.13
2023-05-15T04:37:40.202Z,100147.84
2023-05-15T04:40:08.334Z,100146.09
2023-05-15T04:42:37.754Z,100151.38
2023-05-15T04:45:05.886Z,100143.44
2023-05-15T04:47:32.505Z,100140.78
2023-05-15T04:49:59.056Z,100145.19
2023-05-15T04:52:25.841Z,100134.59
2023-05-15T04:54:53.288Z,100136.34
2023-05-15T04:57:19.789Z,100146.03
2023-05-15T04:59:46.306Z,100149.53
2023-05-15T05:02:13.338Z,100146.03
2023-05-15T05:04:42.964Z,100148.69
2023-05-15T05:07:09.481Z,100149.59
2023-05-15T05:09:35.931Z,100161.97
2023-05-15T05:12:02.420Z,100158.47
2023-05-15T05:14:29.069Z,100166.44
2023-05-15T05:16:55.918Z,100164.69
2023-05-15T05:19:22.453Z,100162.97
2023-05-15T05:21:49.030Z,100149.75
2023-05-15T05:24:15.657Z,100154.22
2023-05-15T05:26:45.270Z,100144.53
2023-05-15T05:29:11.972Z,100148.13
2023-05-15T05:31:38.622Z,100150.78
2023-05-15T05:34:05.199Z,100149.91
2023-05-15T05:36:31.689Z,100143.72
2023-05-15T05:38:58.798Z,100146.38
2023-05-15T05:41:25.880Z,100147.28
2023-05-15T05:43:52.409Z,100141.09
2023-05-15T05:46:19.281Z,100148.13
2023-05-15T05:48:45.780Z,100145.47
2023-05-15T05:51:12.339Z,100145.44
2023-05-15T05:53:39.676Z,100140.13
2023-05-15T05:56:06.885Z,100142.75
2023-05-15T05:58:33.491Z,100147.09
2023-05-15T06:01:00.986Z,100147.97
2023-05-15T06:03:28.423Z,100142.63
2023-05-15T06:05:55.384Z,100145.22
2023-05-15T06:08:22.004Z,100138.97
2023-05-15T06:10:48.981Z,100134.53
2023-05-15T06:13:15.529Z,100139.81
2023-05-15T06:15:42.285Z,100147.75
2023-05-15T06:18:09.489Z,100135.34
2023-05-15T06:20:36.009Z,100128.22
2023-05-15T06:23:02.602Z,100129.88
2023-05-15T06:25:29.243Z,100129.81
2023-05-15T06:27:56.252Z,100139.47
2023-05-15T06:30:23.035Z,100139.38
2023-05-15T06:32:50.478Z,100130.50
2023-05-15T06:35:18.545Z,100131.38
2023-05-15T06:37:50.960Z,100139.38
2023-05-15T06:40:18.159Z,100127.06
2023-05-15T06:42:47.242Z,100129.72
2023-05-15T06:45:14.085Z,100128.84
2023-05-15T06:47:40.796Z,100132.41
2023-05-15T06:50:07.800Z,100127.94
2023-05-15T06:52:36.902Z,100122.56
2023-05-15T06:55:03.577Z,100121.50
2023-05-15T06:57:30.037Z,100126.72
2023-05-15T06:59:56.553Z,100123.94
2023-05-15T07:02:25.262Z,100122.03
2023-05-15T07:04:51.877Z,100127.25
2023-05-15T07:07:18.446Z,100134.22
2023-05-15T07:09:50.576Z,100139.41
2023-05-15T07:12:17.126Z,100135.66
2023-05-15T07:14:43.627Z,100124.78
2023-05-15T07:17:11.480Z,100114.97
